Time;durP1;ratioP1;P1;durP2;ratioP2;P2;SDS_P1;SDS_P2;PMS_P1;PMS_P2;Temp;Humidity;BMP_temperature;BMP_pressure;BME280_temperature;BME280_humidity;BME280_pressure;Samples;Min_cycle;Max_cycle;Signal;HPM_P1;HPM_P2
2022/06/12 00:01:21;;;;;;;6.53;5.60;;;19.10;99.90;;;;;;4966031;28;20232;-63
2022/06/12 00:03:48;;;;;;;9.87;5.97;;;19.10;99.90;;;;;;4962088;28;20201;-64
2022/06/12 00:06:15;;;;;;;6.33;5.83;;;19.10;99.90;;;;;;4966087;28;20196;-65
2022/06/12 00:08:41;;;;;;;6.23;5.63;;;19.20;99.90;;;;;;4964671;28;20627;-64
2022/06/12 00:11:09;;;;;;;6.63;5.93;;;19.20;99.90;;;;;;4965606;28;20224;-64
2022/06/12 00:13:45;;;;;;;6.57;5.33;;;19.20;99.90;;;;;;4963999;28;20197;-64
2022/06/12 00:16:13;;;;;;;6.43;5.87;;;19.20;99.90;;;;;;4951869;28;20188;-63
2022/06/12 00:18:39;;;;;;;6.97;6.30;;;19.20;99.90;;;;;;4959380;28;20194;-64
2022/06/12 00:21:10;;;;;;;8.63;6.00;;;19.20;99.90;;;;;;4966175;28;20205;-64
2022/06/12 00:24:05;;;;;;;10.37;5.93;;;19.20;99.90;;;;;;4959362;28;20210;-65
2022/06/12 00:26:38;;;;;;;6.97;5.73;;;19.20;99.90;;;;;;4947311;28;20547;-65
2022/06/12 00:29:13;;;;;;;6.63;6.03;;;19.10;99.90;;;;;;4964584;28;20208;-64
2022/06/12 00:31:45;;;;;;;6.50;5.90;;;19.10;99.90;;;;;;4965736;28;20188;-64
2022/06/12 00:34:13;;;;;;;8.43;6.73;;;19.20;99.90;;;;;;4964217;28;20282;-65
2022/06/12 00:36:39;;;;;;;6.97;6.33;;;19.20;99.90;;;;;;4965343;28;20198;-65
2022/06/12 00:39:06;;;;;;;6.47;5.57;;;19.20;99.90;;;;;;4959120;28;20212;-66
2022/06/12 00:41:33;;;;;;;8.60;6.87;;;19.20;99.90;;;;;;4965765;28;20235;-61
2022/06/12 00:43:59;;;;;;;7.37;6.40;;;19.10;99.90;;;;;;4963848;28;20653;-61
2022/06/12 00:46:36;;;;;;;6.23;5.63;;;19.10;99.90;;;;;;4965583;28;20224;-61
2022/06/12 00:49:09;;;;;;;6.53;5.83;;;19.20;99.90;;;;;;4963909;28;20257;-61
2022/06/12 00:51:35;;;;;;;7.83;5.70;;;19.10;99.90;;;;;;4964077;28;20673;-62
2022/06/12 00:54:01;;;;;;;7.77;6.30;;;19.10;99.90;;;;;;4964273;28;20212;-62
2022/06/12 00:56:33;;;;;;;7.57;5.80;;;19.10;99.90;;;;;;4965568;28;20201;-63
2022/06/12 00:59:07;;;;;;;9.47;6.90;;;19.10;99.90;;;;;;4959438;28;20215;-59
2022/06/12 01:01:45;;;;;;;7.27;6.67;;;19.00;99.90;;;;;;4959668;28;20224;-60
2022/06/12 01:07:01;;;;;;;6.63;6.03;;;19.00;99.90;;;;;;4960962;28;20193;-60
2022/06/12 01:09:32;;;;;;;6.67;5.87;;;19.00;99.90;;;;;;4965683;28;20192;-61
2022/06/12 01:12:00;;;;;;;7.67;6.90;;;18.90;99.90;;;;;;4948902;28;20189;-62
2022/06/12 01:14:30;;;;;;;6.80;6.17;;;18.90;99.90;;;;;;4965920;28;20845;-60
2022/06/12 01:16:57;;;;;;;6.67;6.07;;;18.90;99.90;;;;;;4962522;28;20224;-61
2022/06/12 01:19:37;;;;;;;7.43;6.53;;;18.90;99.90;;;;;;4960209;28;20236;-61
2022/06/12 01:22:50;;;;;;;9.50;6.77;;;18.80;99.90;;;;;;4961549;28;20224;-62
2022/06/12 01:25:39;;;;;;;9.53;6.67;;;18.80;99.90;;;;;;4965231;28;20648;-61
2022/06/12 01:28:33;;;;;;;6.53;5.93;;;18.80;99.90;;;;;;4954917;28;20253;-61
2022/06/12 01:31:23;;;;;;;6.70;5.97;;;18.80;99.90;;;;;;4946649;29;20199;-61
2022/06/12 01:34:26;;;;;;;7.43;6.60;;;18.80;99.90;;;;;;4960396;28;20201;-62
2022/06/12 01:37:04;;;;;;;7.50;6.67;;;18.80;99.90;;;;;;4966426;28;20188;-62
2022/06/12 01:39:48;;;;;;;7.60;6.90;;;18.80;99.90;;;;;;4974574;28;20244;-61
2022/06/12 01:42:21;;;;;;;8.53;6.23;;;18.80;99.90;;;;;;4948295;28;20356;-63
2022/06/12 01:45:06;;;;;;;6.93;6.23;;;18.80;99.90;;;;;;4965157;28;20281;-60
2022/06/12 01:47:55;;;;;;;6.77;6.17;;;18.80;99.90;;;;;;4953951;28;20227;-63
2022/06/12 01:50:51;;;;;;;6.67;6.07;;;18.80;99.90;;;;;;4965337;28;20213;-61
2022/06/12 01:53:36;;;;;;;12.37;6.20;;;18.70;99.90;;;;;;4963550;28;20205;-62
2022/06/12 01:56:21;;;;;;;16.57;7.37;;;18.70;99.90;;;;;;4955687;28;20198;-62
2022/06/12 01:59:11;;;;;;;10.23;7.23;;;18.60;99.90;;;;;;4955604;28;20588;-64
2022/06/12 02:02:01;;;;;;;6.40;5.80;;;18.70;99.90;;;;;;4967197;28;20657;-63
2022/06/12 02:04:54;;;;;;;8.80;6.83;;;18.60;99.90;;;;;;4953980;28;20831;-62
2022/06/12 02:07:32;;;;;;;10.30;7.10;;;18.60;99.90;;;;;;4959096;28;20201;-62
2022/06/12 02:10:27;;;;;;;7.37;6.67;;;18.60;99.90;;;;;;4968490;28;20223;-62
2022/06/12 02:13:18;;;;;;;7.17;6.43;;;18.60;99.90;;;;;;4959292;28;20194;-63
2022/06/12 02:16:14;;;;;;;9.87;6.73;;;18.60;99.90;;;;;;4960185;28;20276;-62
2022/06/12 02:18:51;;;;;;;8.47;6.97;;;18.60;99.90;;;;;;4966503;28;20202;-62
2022/06/12 02:21:32;;;;;;;9.03;6.87;;;18.60;99.90;;;;;;4967475;28;20220;-62
2022/06/12 02:24:10;;;;;;;7.33;6.67;;;18.60;99.90;;;;;;4964582;28;20233;-62
2022/06/12 02:26:46;;;;;;;8.93;6.80;;;18.70;99.90;;;;;;4967712;28;20200;-63
2022/06/12 02:29:18;;;;;;;9.77;6.30;;;18.70;99.90;;;;;;4967802;28;20256;-73
2022/06/12 02:31:49;;;;;;;8.27;7.00;;;18.70;99.90;;;;;;4968151;28;20196;-74
2022/06/12 02:34:27;;;;;;;8.03;6.67;;;18.70;99.90;;;;;;4964200;28;20212;-63
2022/06/12 02:37:04;;;;;;;6.83;6.27;;;18.70;99.90;;;;;;4966376;28;20181;-64
2022/06/12 02:39:38;;;;;;;6.63;6.03;;;18.80;99.90;;;;;;4967488;28;20189;-64
2022/06/12 02:42:27;;;;;;;7.03;6.30;;;18.80;99.90;;;;;;4966600;28;20242;-64
2022/06/12 02:45:05;;;;;;;7.77;6.90;;;18.80;99.90;;;;;;4968932;28;20186;-63
2022/06/12 02:47:33;;;;;;;6.77;6.27;;;18.80;99.90;;;;;;4960310;28;20285;-63
2022/06/12 02:50:00;;;;;;;7.90;6.07;;;18.80;99.90;;;;;;4968244;28;20205;-64
2022/06/12 02:52:48;;;;;;;6.33;5.73;;;18.80;99.90;;;;;;4966217;28;20206;-62
2022/06/12 02:55:51;;;;;;;7.50;6.80;;;18.80;99.90;;;;;;4968576;28;20192;-64
2022/06/12 02:58:42;;;;;;;7.93;6.40;;;18.90;99.90;;;;;;4966339;28;20265;-64
2022/06/12 03:01:16;;;;;;;8.30;7.40;;;18.90;99.90;;;;;;4948359;29;20270;-64
2022/06/12 03:03:54;;;;;;;7.87;7.10;;;18.80;99.90;;;;;;4962721;28;20210;-64
2022/06/12 03:06:23;;;;;;;7.23;6.50;;;18.80;99.90;;;;;;4967450;28;20195;-64
2022/06/12 03:08:50;;;;;;;7.43;6.47;;;18.80;99.90;;;;;;4948028;28;20206;-64
2022/06/12 03:11:20;;;;;;;7.30;6.70;;;18.80;99.90;;;;;;4966472;28;20231;-63
2022/06/12 03:13:48;;;;;;;8.67;6.40;;;18.80;99.90;;;;;;4965752;28;20213;-63
2022/06/12 03:16:19;;;;;;;9.50;6.73;;;18.80;99.90;;;;;;4967468;28;20632;-63
2022/06/12 03:18:55;;;;;;;7.30;6.43;;;18.80;99.90;;;;;;4965817;28;20324;-64
2022/06/12 03:21:59;;;;;;;10.03;6.80;;;18.80;99.90;;;;;;4955492;28;20666;-64
2022/06/12 03:24:43;;;;;;;6.77;6.17;;;18.80;99.90;;;;;;4947028;28;20198;-62
2022/06/12 03:27:23;;;;;;;6.30;5.77;;;18.80;99.90;;;;;;4965087;28;20545;-62
2022/06/12 03:30:18;;;;;;;6.17;5.60;;;18.90;99.90;;;;;;4966755;28;20203;-63
2022/06/12 03:33:07;;;;;;;6.93;6.00;;;18.90;99.90;;;;;;4965054;28;20201;-62
2022/06/12 03:35:52;;;;;;;7.07;6.13;;;18.90;99.90;;;;;;4948269;29;20189;-63
2022/06/12 03:38:54;;;;;;;5.93;5.40;;;18.90;99.90;;;;;;4965332;28;20212;-63
2022/06/12 03:41:32;;;;;;;6.27;5.67;;;18.90;99.90;;;;;;4948051;29;20270;-63
2022/06/12 03:44:17;;;;;;;8.43;6.10;;;19.00;99.90;;;;;;4964066;28;20212;-63
2022/06/12 03:46:52;;;;;;;6.13;5.53;;;18.90;99.90;;;;;;4965136;28;20241;-63
2022/06/12 03:49:56;;;;;;;7.20;6.47;;;18.90;99.90;;;;;;4966727;28;20667;-63
2022/06/12 03:52:45;;;;;;;6.90;6.30;;;18.90;99.90;;;;;;4965347;28;20208;-63
2022/06/12 03:55:17;;;;;;;6.57;6.00;;;18.80;99.90;;;;;;4966697;28;20284;-63
2022/06/12 03:58:01;;;;;;;6.33;5.83;;;18.80;99.90;;;;;;4964710;28;20197;-64
2022/06/12 04:00:42;;;;;;;7.57;6.87;;;18.80;99.90;;;;;;4966788;28;20238;-64
2022/06/12 04:03:38;;;;;;;7.73;6.97;;;18.80;99.90;;;;;;4957126;28;20205;-64
2022/06/12 04:06:08;;;;;;;8.97;7.97;;;18.80;99.90;;;;;;4957313;28;20189;-64
2022/06/12 04:08:45;;;;;;;12.33;7.53;;;18.80;99.90;;;;;;4965183;28;20209;-64
2022/06/12 04:11:13;;;;;;;8.67;7.87;;;18.70;99.90;;;;;;4949846;28;20217;-65
2022/06/12 04:13:40;;;;;;;9.23;8.27;;;18.70;99.90;;;;;;4964459;28;20340;-65
2022/06/12 04:16:20;;;;;;;10.63;8.27;;;18.70;99.90;;;;;;4965990;28;20193;-65
2022/06/12 04:18:45;;;;;;;8.27;7.47;;;18.70;99.90;;;;;;4965020;28;20231;-65
2022/06/12 04:21:35;;;;;;;10.97;8.73;;;18.70;99.90;;;;;;4966429;28;20248;-64
2022/06/12 04:24:14;;;;;;;9.73;8.83;;;18.80;99.90;;;;;;4964448;28;20217;-63
2022/06/12 04:26:45;;;;;;;10.40;7.87;;;18.90;99.90;;;;;;4946947;29;20201;-63
2022/06/12 04:29:10;;;;;;;9.03;8.07;;;18.80;99.90;;;;;;4947041;29;20190;-63
2022/06/12 04:31:37;;;;;;;8.57;7.77;;;18.80;99.90;;;;;;4965361;28;20291;-63
2022/06/12 04:34:11;;;;;;;10.27;8.70;;;18.60;99.90;;;;;;4964434;28;20252;-63
2022/06/12 04:36:37;;;;;;;8.63;7.93;;;18.60;99.90;;;;;;4966021;28;20192;-64
2022/06/12 04:39:04;;;;;;;13.87;9.73;;;18.60;99.90;;;;;;4964683;28;20744;-62
2022/06/12 04:41:35;;;;;;;10.47;8.30;;;18.60;99.90;;;;;;4966077;28;20663;-63
2022/06/12 04:44:01;;;;;;;10.73;9.73;;;18.50;99.90;;;;;;4963866;28;20217;-63
2022/06/12 04:46:27;;;;;;;9.43;8.63;;;18.40;99.90;;;;;;4965981;28;20616;-63
2022/06/12 04:48:56;;;;;;;9.77;8.00;;;18.40;99.90;;;;;;4964094;28;20217;-62
2022/06/12 04:51:21;;;;;;;10.33;9.33;;;18.40;99.90;;;;;;4965835;28;20220;-63
2022/06/12 04:53:47;;;;;;;10.93;9.27;;;18.40;99.90;;;;;;4964166;28;20671;-63
2022/06/12 04:56:16;;;;;;;10.50;8.93;;;18.50;99.90;;;;;;4966193;28;20200;-63
2022/06/12 04:58:43;;;;;;;10.20;9.33;;;18.60;99.90;;;;;;4964048;28;20223;-63
2022/06/12 05:01:09;;;;;;;11.07;9.67;;;18.70;99.90;;;;;;4965647;28;20264;-63
2022/06/12 05:03:36;;;;;;;10.70;9.80;;;18.70;99.90;;;;;;4964135;28;20718;-63
2022/06/12 05:06:02;;;;;;;11.43;10.53;;;18.70;99.90;;;;;;4965814;28;20647;-62
2022/06/12 05:08:28;;;;;;;10.33;9.53;;;18.70;99.90;;;;;;4964271;28;20211;-63
2022/06/12 05:10:53;;;;;;;11.73;10.33;;;18.60;99.90;;;;;;4965597;28;20220;-63
2022/06/12 05:13:19;;;;;;;13.40;11.17;;;18.60;99.90;;;;;;4960754;28;20615;-63
2022/06/12 05:15:46;;;;;;;10.97;9.87;;;18.70;99.90;;;;;;4966212;28;20285;-63
2022/06/12 05:18:14;;;;;;;10.93;9.83;;;18.80;99.90;;;;;;4956426;28;20724;-63
2022/06/12 05:20:41;;;;;;;10.93;9.83;;;18.90;99.90;;;;;;4965399;28;20197;-63
2022/06/12 05:23:07;;;;;;;12.30;11.10;;;18.90;99.90;;;;;;4963963;28;20213;-64
2022/06/12 05:25:33;;;;;;;11.20;10.10;;;18.90;99.90;;;;;;4965637;28;20253;-64
2022/06/12 05:28:00;;;;;;;14.10;11.23;;;18.90;99.90;;;;;;4963540;28;20735;-64
2022/06/12 05:30:28;;;;;;;10.63;9.77;;;19.00;99.90;;;;;;4965499;28;20269;-63
2022/06/12 05:32:57;;;;;;;12.13;9.53;;;19.00;99.90;;;;;;4963693;28;20202;-64
2022/06/12 05:35:22;;;;;;;10.80;9.90;;;19.00;99.90;;;;;;4967995;28;20197;-64
2022/06/12 05:37:50;;;;;;;12.50;10.80;;;19.00;99.90;;;;;;4967754;28;20609;-64
2022/06/12 05:40:20;;;;;;;10.97;9.80;;;19.00;99.90;;;;;;4969210;28;20205;-64
2022/06/12 05:42:46;;;;;;;13.43;9.67;;;19.00;99.90;;;;;;4967711;28;20216;-64
2022/06/12 05:45:15;;;;;;;12.17;10.97;;;19.00;99.90;;;;;;4969258;28;20615;-65
2022/06/12 05:47:47;;;;;;;10.43;9.43;;;19.10;99.90;;;;;;4967503;28;20212;-65
2022/06/12 05:50:12;;;;;;;12.10;11.00;;;19.10;99.90;;;;;;4969002;28;20217;-65
2022/06/12 05:52:38;;;;;;;11.50;10.40;;;19.20;99.90;;;;;;4952943;28;20301;-64
2022/06/12 05:55:04;;;;;;;11.30;10.27;;;19.30;99.90;;;;;;4958115;28;20190;-64
2022/06/12 05:57:29;;;;;;;12.67;11.27;;;19.40;99.90;;;;;;4966997;28;20684;-64
2022/06/12 05:59:55;;;;;;;11.70;10.70;;;19.50;99.90;;;;;;4968714;28;20257;-63
2022/06/12 06:02:21;;;;;;;11.40;10.17;;;19.50;99.90;;;;;;4966390;28;20224;-64
2022/06/12 06:04:47;;;;;;;12.43;11.17;;;19.60;99.90;;;;;;4968745;28;20198;-64
2022/06/12 06:07:13;;;;;;;11.17;10.07;;;19.60;99.90;;;;;;4966622;28;20205;-64
2022/06/12 06:09:38;;;;;;;11.60;10.37;;;19.60;99.90;;;;;;4968983;28;20220;-64
2022/06/12 06:12:05;;;;;;;12.13;10.93;;;19.60;99.90;;;;;;4966706;28;20683;-63
2022/06/12 06:14:34;;;;;;;12.07;10.93;;;19.60;99.90;;;;;;4968099;28;20645;-64
2022/06/12 06:16:59;;;;;;;14.20;11.27;;;19.70;99.90;;;;;;4965798;28;20624;-64
2022/06/12 06:19:25;;;;;;;12.50;11.30;;;19.60;99.90;;;;;;4968583;28;20201;-62
2022/06/12 06:21:50;;;;;;;12.67;11.03;;;19.60;99.90;;;;;;4966626;28;20193;-65
2022/06/12 06:24:16;;;;;;;11.77;10.87;;;19.70;99.90;;;;;;4968607;28;20627;-63
2022/06/12 06:26:42;;;;;;;11.67;10.47;;;19.80;99.90;;;;;;4967345;28;20197;-65
2022/06/12 06:29:09;;;;;;;11.13;9.83;;;19.90;99.90;;;;;;4954275;28;20213;-65
2022/06/12 06:31:36;;;;;;;9.83;8.83;;;20.10;99.90;;;;;;4967884;28;20229;-64
2022/06/12 06:34:02;;;;;;;10.27;9.23;;;20.10;99.90;;;;;;4966108;28;20227;-62
2022/06/12 06:36:27;;;;;;;11.47;10.40;;;20.30;99.90;;;;;;4968159;28;20675;-65
2022/06/12 06:38:55;;;;;;;10.40;9.10;;;20.30;99.90;;;;;;4966167;28;20261;-63
2022/06/12 06:41:21;;;;;;;11.63;10.43;;;20.40;99.90;;;;;;4967884;28;20201;-63
2022/06/12 06:46:42;;;;;;;10.70;9.70;;;20.50;99.90;;;;;;4905266;28;20207;-64
2022/06/12 06:49:08;;;;;;;10.90;8.73;;;20.60;99.90;;;;;;4967055;28;20216;-64
2022/06/12 06:51:33;;;;;;;10.53;9.43;;;20.60;99.90;;;;;;4968169;28;20699;-64
2022/06/12 06:53:59;;;;;;;8.95;8.10;;;20.70;99.90;;;;;;4965940;28;20205;-65
2022/06/12 06:56:26;;;;;;;10.27;9.30;;;20.80;99.90;;;;;;4967420;28;20194;-64
2022/06/12 06:58:52;;;;;;;10.97;9.27;;;21.00;99.90;;;;;;4965391;28;20197;-63
2022/06/12 07:01:17;;;;;;;8.95;8.13;;;21.10;99.90;;;;;;4967467;28;20233;-63
2022/06/12 07:03:44;;;;;;;9.93;9.02;;;21.20;99.90;;;;;;4965818;28;20264;-65
2022/06/12 07:06:11;;;;;;;9.35;8.55;;;21.30;99.90;;;;;;4949682;28;20197;-65
2022/06/12 07:08:37;;;;;;;10.03;9.07;;;21.20;99.90;;;;;;4965289;28;20236;-63
2022/06/12 07:11:03;;;;;;;8.63;7.93;;;21.30;99.90;;;;;;4967491;28;20252;-64
2022/06/12 07:13:29;;;;;;;10.37;9.50;;;21.30;99.90;;;;;;4944782;29;20214;-64
2022/06/12 07:15:55;;;;;;;12.37;9.43;;;21.30;99.90;;;;;;4966420;28;20201;-63
2022/06/12 07:18:21;;;;;;;8.73;8.00;;;21.20;99.90;;;;;;4965970;28;20212;-64
2022/06/12 07:20:56;;;;;;;9.43;8.60;;;21.00;99.90;;;;;;4967448;28;20262;-64
2022/06/12 07:23:23;;;;;;;9.40;8.70;;;21.00;99.90;;;;;;4959385;28;20201;-62
2022/06/12 07:25:54;;;;;;;9.98;9.07;;;20.90;99.90;;;;;;4967212;28;20194;-63
2022/06/12 07:28:20;;;;;;;9.90;9.00;;;20.80;99.90;;;;;;4965623;28;20261;-63
2022/06/12 07:30:47;;;;;;;8.47;7.80;;;20.90;99.90;;;;;;4967167;28;20217;-63
2022/06/12 07:33:12;;;;;;;8.83;8.00;;;20.90;99.90;;;;;;4965488;28;20621;-63
2022/06/12 07:35:40;;;;;;;10.30;8.10;;;20.90;99.90;;;;;;4967321;28;20708;-63
2022/06/12 07:38:06;;;;;;;8.20;7.37;;;20.90;99.90;;;;;;4965484;28;20208;-62
2022/06/12 07:40:38;;;;;;;8.57;7.63;;;21.10;99.90;;;;;;4966835;28;20682;-65
2022/06/12 07:43:04;;;;;;;8.97;8.17;;;21.00;99.90;;;;;;4956835;28;20213;-63
2022/06/12 07:45:30;;;;;;;20.13;7.13;;;21.10;99.90;;;;;;4966901;28;20213;-63
2022/06/12 07:47:56;;;;;;;7.53;6.90;;;21.10;99.90;;;;;;4964237;28;20330;-63
2022/06/12 07:50:22;;;;;;;8.23;6.10;;;21.20;99.90;;;;;;4966771;28;20333;-63
2022/06/12 07:52:48;;;;;;;6.80;5.50;;;21.30;99.90;;;;;;4964086;28;20280;-64
2022/06/12 07:55:16;;;;;;;4.97;4.53;;;21.30;99.90;;;;;;4966830;28;20201;-63
2022/06/12 07:57:42;;;;;;;5.85;5.28;;;21.40;99.90;;;;;;4963779;28;20571;-62
2022/06/12 08:00:10;;;;;;;6.73;6.07;;;21.60;99.90;;;;;;4966373;28;20708;-62
2022/06/12 08:02:35;;;;;;;5.70;4.67;;;21.60;99.90;;;;;;4952766;28;20211;-63
2022/06/12 08:05:01;;;;;;;4.97;4.57;;;21.70;99.90;;;;;;4967165;28;20211;-63
2022/06/12 08:07:27;;;;;;;6.15;5.40;;;21.70;99.90;;;;;;4964660;28;20217;-63
2022/06/12 08:09:52;;;;;;;7.40;4.97;;;21.90;99.90;;;;;;4966543;28;20233;-62
2022/06/12 08:12:18;;;;;;;5.97;5.40;;;22.00;99.90;;;;;;4964578;28;20210;-63
2022/06/12 08:14:43;;;;;;;5.93;5.30;;;22.30;99.90;;;;;;4966313;28;20752;-63
2022/06/12 08:17:09;;;;;;;6.63;5.03;;;22.50;99.90;;;;;;4957579;28;20242;-64
2022/06/12 08:22:19;;;;;;;5.75;4.60;;;22.80;99.90;;;;;;4952921;28;20215;-63
2022/06/12 08:24:45;;;;;;;6.68;5.07;;;22.90;99.90;;;;;;4966224;28;20540;-63
2022/06/12 08:27:11;;;;;;;8.88;5.43;;;22.90;99.90;;;;;;4964506;28;20193;-65
2022/06/12 08:29:37;;;;;;;6.05;5.45;;;23.00;99.90;;;;;;4965835;28;20999;-63
2022/06/12 08:32:07;;;;;;;5.70;5.28;;;23.20;99.90;;;;;;4964510;28;20207;-62
2022/06/12 08:34:39;;;;;;;7.00;5.43;;;23.40;99.90;;;;;;4966644;28;20241;-61
2022/06/12 08:37:10;;;;;;;5.82;4.40;;;23.90;99.90;;;;;;4963743;28;20672;-62
2022/06/12 08:39:35;;;;;;;5.28;4.25;;;24.10;99.90;;;;;;4965721;28;20182;-63
2022/06/12 08:42:26;;;;;;;6.20;4.40;;;24.20;99.90;;;;;;4963802;28;20580;-63
2022/06/12 08:45:01;;;;;;;10.25;4.82;;;24.10;99.90;;;;;;4965921;28;20187;-64
2022/06/12 08:47:39;;;;;;;7.68;5.25;;;24.10;99.90;;;;;;4950954;28;20249;-64
2022/06/12 08:50:26;;;;;;;6.93;4.20;;;24.20;99.90;;;;;;4966180;28;20220;-63
2022/06/12 08:52:58;;;;;;;3.63;3.30;;;24.20;99.90;;;;;;4963868;28;20666;-64
2022/06/12 08:55:45;;;;;;;6.20;3.78;;;24.40;99.90;;;;;;4946753;28;20289;-63
2022/06/12 08:58:27;;;;;;;6.13;4.13;;;24.50;99.90;;;;;;4956530;28;20307;-64
2022/06/12 09:00:54;;;;;;;4.07;3.65;;;24.50;99.20;;;;;;4954331;28;20237;-64
2022/06/12 09:03:25;;;;;;;4.95;3.50;;;24.70;98.50;;;;;;4946213;28;20473;-63
2022/06/12 09:06:09;;;;;;;4.97;2.80;;;24.80;98.10;;;;;;4946925;29;20201;-63
2022/06/12 09:09:19;;;;;;;2.72;2.35;;;25.00;97.50;;;;;;4973153;28;20200;-64
2022/06/12 09:12:18;;;;;;;6.57;3.38;;;25.10;95.90;;;;;;4975814;28;20208;-64
2022/06/12 09:15:13;;;;;;;3.10;2.15;;;24.80;95.70;;;;;;4969933;28;20681;-65
2022/06/12 09:17:54;;;;;;;6.50;2.33;;;24.80;94.20;;;;;;4942548;28;20205;-64
2022/06/12 09:20:40;;;;;;;3.10;2.80;;;24.40;94.20;;;;;;4969826;28;20202;-65
2022/06/12 09:23:37;;;;;;;3.08;2.78;;;24.00;94.80;;;;;;4962931;28;20267;-64
2022/06/12 09:26:14;;;;;;;4.13;2.35;;;24.00;95.00;;;;;;4955818;28;20267;-72
2022/06/12 09:28:49;;;;;;;9.38;3.13;;;24.10;95.30;;;;;;4958729;28;20210;-72
2022/06/12 09:31:28;;;;;;;4.50;3.13;;;24.20;95.70;;;;;;4954467;28;20253;-72
2022/06/12 09:34:12;;;;;;;3.88;2.97;;;24.20;95.90;;;;;;4966093;28;20704;-70
2022/06/12 09:38:18;;;;;;;4.95;2.85;;;24.40;96.40;;;;;;4961176;28;20208;-70
2022/06/12 09:40:01;;;;;;;5.22;3.47;;;24.70;96.30;;;;;;4969153;28;20253;-72
2022/06/12 09:42:54;;;;;;;3.60;3.08;;;25.00;96.20;;;;;;4957389;28;20656;-70
2022/06/12 09:46:14;;;;;;;3.53;2.47;;;25.00;94.20;;;;;;4969316;28;20191;-74
2022/06/12 09:49:23;;;;;;;8.27;3.50;;;25.00;92.80;;;;;;4878683;29;20368;-69
2022/06/12 09:52:11;;;;;;;6.32;2.83;;;25.10;92.90;;;;;;4963386;28;20209;-72
2022/06/12 09:54:59;;;;;;;3.05;2.58;;;25.40;91.90;;;;;;4969118;28;20231;-73
2022/06/12 09:57:49;;;;;;;3.55;2.63;;;25.30;92.30;;;;;;4967198;28;20208;-72
2022/06/12 10:00:33;;;;;;;2.80;2.58;;;25.20;92.40;;;;;;4969120;28;20336;-71
2022/06/12 10:03:16;;;;;;;3.30;2.72;;;25.30;93.10;;;;;;4957715;28;20261;-73
2022/06/12 10:05:49;;;;;;;6.43;2.90;;;25.50;92.50;;;;;;4956420;28;20200;-72
2022/06/12 10:08:37;;;;;;;7.88;2.75;;;25.40;91.40;;;;;;4960040;28;20262;-71
2022/06/12 10:11:10;;;;;;;5.50;2.38;;;25.10;91.00;;;;;;4954979;28;20232;-70
2022/06/12 10:13:41;;;;;;;4.38;2.17;;;24.90;90.40;;;;;;4962778;28;20982;-76
2022/06/12 10:16:16;;;;;;;5.85;2.92;;;24.80;91.40;;;;;;4951810;28;20342;-70
2022/06/12 10:18:48;;;;;;;4.80;2.30;;;25.10;91.60;;;;;;4966412;28;20693;-72
2022/06/12 10:21:21;;;;;;;5.38;2.17;;;25.30;91.30;;;;;;4959513;28;20687;-71
2022/06/12 10:23:47;;;;;;;5.30;2.05;;;25.30;92.00;;;;;;4958740;28;21063;-72
2022/06/12 10:26:18;;;;;;;6.25;2.55;;;25.40;86.70;;;;;;4968226;28;20575;-72
2022/06/12 10:28:44;;;;;;;3.47;2.33;;;25.30;84.70;;;;;;4963601;28;20617;-72
2022/06/12 10:31:18;;;;;;;3.25;1.75;;;25.30;84.00;;;;;;4968376;28;21027;-72
2022/06/12 10:34:16;;;;;;;3.95;2.10;;;25.10;82.50;;;;;;4963494;28;20212;-72
2022/06/12 10:36:43;;;;;;;2.80;2.35;;;25.10;82.30;;;;;;4951621;28;20260;-72
2022/06/12 10:39:20;;;;;;;3.88;2.08;;;25.20;82.70;;;;;;4955131;28;20645;-71
2022/06/12 10:41:54;;;;;;;3.05;2.20;;;25.30;84.00;;;;;;4958853;28;20225;-71
2022/06/12 10:44:41;;;;;;;5.07;1.98;;;25.50;81.70;;;;;;4968123;28;20181;-66
2022/06/12 10:47:14;;;;;;;5.53;2.45;;;25.40;80.70;;;;;;4966461;28;20284;-65
2022/06/12 10:49:40;;;;;;;1.85;1.63;;;25.20;80.30;;;;;;4967986;28;20750;-69
2022/06/12 10:52:12;;;;;;;5.43;2.42;;;25.00;79.40;;;;;;4966449;28;20203;-68
2022/06/12 10:54:37;;;;;;;5.20;2.38;;;24.80;79.80;;;;;;4967979;28;20336;-68
2022/06/12 10:57:46;;;;;;;5.35;2.67;;;25.00;80.10;;;;;;4966291;28;20294;-68
2022/06/12 11:00:20;;;;;;;3.30;2.08;;;25.00;80.60;;;;;;4971193;28;20230;-67
2022/06/12 11:02:48;;;;;;;6.30;2.65;;;25.40;80.50;;;;;;4969561;28;20204;-63
2022/06/12 11:05:37;;;;;;;4.13;2.38;;;25.40;79.70;;;;;;4968107;28;20204;-63
2022/06/12 11:08:41;;;;;;;4.18;2.20;;;25.40;80.60;;;;;;4969571;28;20853;-65
2022/06/12 11:11:34;;;;;;;6.45;2.00;;;25.70;78.30;;;;;;4954371;28;20221;-67
2022/06/12 11:14:21;;;;;;;4.45;2.08;;;26.60;78.70;;;;;;4964802;28;20288;-66
2022/06/12 11:17:06;;;;;;;6.00;2.53;;;27.30;73.60;;;;;;4954534;28;20245;-67
2022/06/12 11:19:50;;;;;;;5.65;2.35;;;27.60;70.70;;;;;;4967975;28;20193;-67
2022/06/12 11:22:40;;;;;;;3.97;1.80;;;27.20;70.50;;;;;;4951277;28;20201;-67
2022/06/12 11:25:27;;;;;;;4.55;2.22;;;27.60;70.20;;;;;;4962371;28;20220;-67
2022/06/12 11:28:00;;;;;;;4.90;2.13;;;28.10;68.80;;;;;;4958511;28;20927;-68
2022/06/12 11:30:40;;;;;;;5.63;2.15;;;28.10;67.70;;;;;;4948251;29;20214;-64
2022/06/12 11:33:27;;;;;;;7.60;2.38;;;27.90;67.30;;;;;;4964173;28;20966;-68
2022/06/12 11:35:58;;;;;;;7.53;2.47;;;27.40;67.50;;;;;;4947965;29;20201;-67
2022/06/12 11:38:55;;;;;;;6.07;2.88;;;26.70;69.50;;;;;;4964886;28;20202;-67
2022/06/12 11:41:54;;;;;;;8.77;2.78;;;26.50;68.60;;;;;;4967423;28;20257;-67
2022/06/12 11:44:23;;;;;;;2.75;1.85;;;26.00;69.90;;;;;;4953225;28;20295;-65
2022/06/12 11:47:02;;;;;;;6.15;3.63;;;25.50;71.40;;;;;;4964956;28;20198;-65
2022/06/12 11:49:38;;;;;;;4.15;2.13;;;25.60;71.90;;;;;;4967193;28;20213;-65
2022/06/12 11:52:25;;;;;;;2.47;2.17;;;26.40;70.20;;;;;;4949150;28;20213;-66
2022/06/12 11:55:17;;;;;;;8.60;3.00;;;27.70;69.20;;;;;;4967233;28;20189;-69
2022/06/12 11:58:07;;;;;;;8.63;2.97;;;29.00;66.90;;;;;;4964195;28;20213;-68
2022/06/12 12:00:49;;;;;;;4.28;2.60;;;30.50;62.40;;;;;;4957194;28;20257;-68
2022/06/12 12:03:30;;;;;;;7.25;2.85;;;31.20;59.30;;;;;;4962473;28;20209;-68
2022/06/12 12:06:01;;;;;;;5.25;2.75;;;31.30;57.90;;;;;;4947162;29;20194;-67
2022/06/12 12:08:37;;;;;;;3.67;2.42;;;31.20;58.40;;;;;;4964148;28;20209;-64
2022/06/12 12:11:08;;;;;;;4.50;2.78;;;31.80;58.20;;;;;;4947474;29;20213;-65
2022/06/12 12:13:42;;;;;;;5.93;2.70;;;32.00;55.90;;;;;;4960762;28;20216;-64
2022/06/12 12:16:34;;;;;;;4.43;2.08;;;30.80;56.00;;;;;;4961037;28;20208;-64
2022/06/12 12:19:12;;;;;;;5.20;2.63;;;29.80;55.50;;;;;;4964270;28;20217;-64
2022/06/12 12:21:55;;;;;;;5.10;2.55;;;30.00;55.60;;;;;;4958385;28;20541;-66
2022/06/12 12:24:27;;;;;;;7.47;2.97;;;30.10;55.70;;;;;;4951012;28;20201;-64
2022/06/12 12:26:58;;;;;;;3.70;2.30;;;30.50;53.80;;;;;;4954835;28;20691;-66
2022/06/12 12:29:28;;;;;;;8.15;2.60;;;30.70;53.90;;;;;;4966532;28;20209;-67
2022/06/12 12:31:54;;;;;;;2.53;2.28;;;30.10;54.70;;;;;;4963996;28;20866;-65
2022/06/12 12:34:23;;;;;;;5.20;2.78;;;29.90;55.90;;;;;;4966706;28;20280;-65
2022/06/12 12:42:31;;;;;;;5.35;2.67;;;31.20;54.40;;;;;;4964670;28;20272;-67
2022/06/12 12:45:12;;;;;;;4.22;2.83;;;31.70;52.00;;;;;;4965851;28;20211;-68
2022/06/12 12:47:37;;;;;;;4.57;2.15;;;31.40;52.60;;;;;;4952475;28;20193;-67
2022/06/12 12:50:03;;;;;;;5.80;2.67;;;31.90;50.90;;;;;;4961507;28;20220;-65
2022/06/12 12:52:40;;;;;;;4.60;2.60;;;32.50;51.50;;;;;;4958259;28;20614;-65
2022/06/12 12:55:28;;;;;;;4.50;3.30;;;33.50;50.80;;;;;;4946770;28;20375;-65
2022/06/12 12:57:55;;;;;;;7.10;2.85;;;34.30;46.90;;;;;;4965911;28;20188;-63
2022/06/12 13:00:26;;;;;;;10.00;2.75;;;33.60;47.00;;;;;;4963030;28;20718;-63
2022/06/12 13:03:06;;;;;;;6.70;3.08;;;33.90;46.00;;;;;;4965858;28;20200;-63
2022/06/12 13:05:49;;;;;;;4.65;2.47;;;33.80;45.70;;;;;;4964186;28;20607;-65
2022/06/12 13:08:53;;;;;;;2.13;1.92;;;33.90;44.70;;;;;;4966305;28;20699;-62
2022/06/12 13:11:34;;;;;;;4.35;3.22;;;33.90;45.20;;;;;;4963460;28;20743;-62
2022/06/12 13:14:26;;;;;;;5.78;2.78;;;33.40;45.60;;;;;;4964052;28;20199;-62
2022/06/12 13:16:53;;;;;;;4.22;2.85;;;33.70;43.80;;;;;;4959749;28;20208;-63
2022/06/12 13:20:01;;;;;;;5.80;3.08;;;34.00;41.60;;;;;;4965492;28;20194;-63
2022/06/12 13:22:43;;;;;;;5.13;3.13;;;33.20;42.90;;;;;;4959697;28;20212;-64
2022/06/12 13:25:16;;;;;;;7.70;3.47;;;32.20;44.20;;;;;;4960484;28;20186;-64
2022/06/12 13:27:52;;;;;;;4.80;2.83;;;32.20;44.20;;;;;;4964186;28;20224;-65
2022/06/12 13:30:25;;;;;;;4.03;2.92;;;31.60;43.10;;;;;;4964969;28;20235;-63
2022/06/12 13:32:51;;;;;;;3.55;2.17;;;32.30;43.90;;;;;;4963791;28;20256;-65
2022/06/12 13:35:21;;;;;;;5.10;2.33;;;33.30;44.70;;;;;;4965433;28;20208;-64
2022/06/12 13:37:50;;;;;;;3.35;2.58;;;33.80;42.90;;;;;;4953283;28;20205;-64
2022/06/12 13:40:38;;;;;;;4.40;3.03;;;34.30;43.30;;;;;;4962621;28;20735;-64